Terminal Aerodrome Forecast
Issued by NWS

Home | Current Version | Previous Version | Text Only | Print | Product List | Glossary On
Versions: 1 2 3 4 5 6 7 8 9 10 11 12 13 14 15 16 17 18 19
399
FTUS44 KMAF 251939 AAA
TAFFST
TAF AMD
KFST 251939Z 2520/2618 24010KT P6SM SCT120 SCT250
      TEMPO 2521/2524 VRB20G30KT TSRA BKN050CB
     FM260100 15009KT P6SM BKN150=

USA.gov is the U.S. government's official web portal to all federal, state and local government web resources and services.